createdAt,value
2019-02-15T00:02:22.489Z,101777.91
2019-02-15T00:04:50.535Z,101780.14
2019-02-15T00:07:18.893Z,101785.41
2019-02-15T00:09:46.961Z,101782.36
2019-02-15T00:12:15.042Z,101782.45
2019-02-15T00:14:47.820Z,101774.81
2019-02-15T00:17:23.105Z,101777.96
2019-02-15T00:19:52.794Z,101776.30
2019-02-15T00:22:20.915Z,101767.22
2019-02-15T00:24:49.105Z,101772.41
2019-02-15T00:27:17.198Z,101773.23
2019-02-15T00:29:45.270Z,101773.15
2019-02-15T00:32:13.355Z,101766.75
2019-02-15T00:34:41.408Z,101764.25
2019-02-15T00:37:09.498Z,101762.49
2019-02-15T00:39:37.583Z,101761.20
2019-02-15T00:42:05.664Z,101756.94
2019-02-15T00:44:33.718Z,101759.06
2019-02-15T00:47:32.212Z,101757.92
2019-02-15T00:50:26.005Z,101751.53
2019-02-15T00:53:22.845Z,101751.70
2019-02-15T00:56:04.626Z,101753.15
2019-02-15T00:59:04.008Z,101740.42
2019-02-15T01:01:57.701Z,101741.62
2019-02-15T01:04:44.407Z,101739.72
2019-02-15T01:07:22.497Z,101735.52
2019-02-15T01:09:58.067Z,101735.61
2019-02-15T01:12:30.892Z,101730.05
2019-02-15T01:14:59.194Z,101728.38
2019-02-15T01:17:27.683Z,101726.34
2019-02-15T01:19:56.009Z,101727.23
2019-02-15T01:22:24.491Z,101735.93
2019-02-15T01:24:52.664Z,101731.20
2019-02-15T01:27:46.289Z,101733.52
2019-02-15T01:30:40.104Z,101728.80
2019-02-15T01:33:26.437Z,101731.99
2019-02-15T01:36:12.486Z,101732.25
2019-02-15T01:38:47.303Z,101730.27
2019-02-15T01:41:27.696Z,101733.87
2019-02-15T01:44:04.221Z,101737.38
2019-02-15T01:46:46.180Z,101736.14
2019-02-15T01:49:15.388Z,101732.89
2019-02-15T01:51:43.437Z,101738.67
2019-02-15T01:54:11.514Z,101736.34
2019-02-15T01:56:39.571Z,101743.88
2019-02-15T01:59:07.694Z,101742.65
2019-02-15T02:01:36.017Z,101737.49
2019-02-15T02:04:04.105Z,101735.07
2019-02-15T02:06:32.279Z,101737.74
2019-02-15T02:09:00.391Z,101736.05
2019-02-15T02:11:29.773Z,101736.13
2019-02-15T02:13:57.860Z,101733.77
2019-02-15T02:16:26.157Z,101733.23
2019-02-15T02:18:54.233Z,101729.05
2019-02-15T02:21:22.827Z,101729.68
2019-02-15T02:23:50.915Z,101730.56
2019-02-15T02:26:19.106Z,101726.23
2019-02-15T02:28:47.194Z,101723.27
2019-02-15T02:31:15.391Z,101719.75
2019-02-15T02:33:44.717Z,101715.88
2019-02-15T02:36:12.778Z,101716.42
2019-02-15T02:38:40.857Z,101713.91
2019-02-15T02:41:09.129Z,101713.16
2019-02-15T02:43:37.466Z,101709.79
2019-02-15T02:46:05.816Z,101707.83
2019-02-15T02:48:33.908Z,101706.21
2019-02-15T02:51:01.954Z,101711.92
2019-02-15T02:53:30.026Z,101712.02
2019-02-15T02:55:58.085Z,101711.72
2019-02-15T02:58:26.156Z,101717.78
2019-02-15T03:00:54.210Z,101716.65
2019-02-15T03:03:22.269Z,101713.81
2019-02-15T03:05:50.351Z,101712.14
2019-02-15T03:08:19.636Z,101711.02
2019-02-15T03:10:49.188Z,101715.86
2019-02-15T03:13:17.323Z,101714.73
2019-02-15T03:15:45.676Z,101716.94
2019-02-15T03:18:13.740Z,101713.27
2019-02-15T03:20:41.793Z,101719.44
2019-02-15T03:23:09.872Z,101715.23
2019-02-15T03:25:38.153Z,101711.52
2019-02-15T03:28:06.525Z,101704.76
2019-02-15T03:30:34.600Z,101710.44
2019-02-15T03:33:02.847Z,101702.38
2019-02-15T03:35:30.943Z,101707.63
2019-02-15T03:38:21.152Z,101704.42
2019-02-15T03:40:54.444Z,101707.97
2019-02-15T03:43:22.487Z,101709.04
2019-02-15T03:45:50.643Z,101713.58
2019-02-15T03:48:19.581Z,101705.73
2019-02-15T03:50:47.775Z,101711.72
2019-02-15T03:53:15.816Z,101706.06
2019-02-15T03:55:43.877Z,101705.55
2019-02-15T03:58:11.905Z,101702.29
2019-02-15T04:00:39.983Z,101704.95
2019-02-15T04:03:08.054Z,101703.66
2019-02-15T04:05:36.116Z,101709.66
2019-02-15T04:08:04.189Z,101708.45
2019-02-15T04:10:32.270Z,101710.23
2019-02-15T04:13:00.612Z,101707.66
2019-02-15T04:15:28.977Z,101703.02
2019-02-15T04:17:57.259Z,101697.41
2019-02-15T04:20:25.338Z,101699.45
2019-02-15T04:22:53.387Z,101694.73
2019-02-15T04:25:21.432Z,101699.52
2019-02-15T04:27:49.487Z,101699.98
2019-02-15T04:30:17.673Z,101695.84
2019-02-15T04:32:47.770Z,101697.22
2019-02-15T04:35:16.199Z,101695.17
2019-02-15T04:37:44.227Z,101695.17
2019-02-15T04:40:12.260Z,101696.45
2019-02-15T04:42:40.629Z,101700.71
2019-02-15T04:45:08.755Z,101698.05
2019-02-15T04:47:36.849Z,101697.55
2019-02-15T04:50:06.836Z,101698.77
2019-02-15T04:52:34.865Z,101700.52
2019-02-15T04:55:03.375Z,101702.19
2019-02-15T04:57:31.417Z,101700.06
2019-02-15T04:59:59.508Z,101706.14
2019-02-15T05:02:28.724Z,101703.17
2019-02-15T05:04:56.803Z,101702.72
2019-02-15T05:07:24.856Z,101703.55
2019-02-15T05:09:52.895Z,101701.43
2019-02-15T05:12:21.686Z,101703.09
2019-02-15T05:14:53.056Z,101700.44
2019-02-15T05:17:20.204Z,101706.36
2019-02-15T05:19:48.326Z,101711.91
2019-02-15T05:22:16.501Z,101705.86
2019-02-15T05:24:44.704Z,101703.73
2019-02-15T05:27:13.040Z,101716.70
2019-02-15T05:29:41.107Z,101713.66
2019-02-15T05:32:09.176Z,101708.03
2019-02-15T05:34:37.599Z,101710.62
2019-02-15T05:37:05.626Z,101717.79
2019-02-15T05:39:35.787Z,101719.38
2019-02-15T05:42:05.048Z,101718.93
2019-02-15T05:44:33.513Z,101718.63
2019-02-15T05:47:02.963Z,101714.75
2019-02-15T05:49:31.057Z,101713.91
2019-02-15T05:51:59.160Z,101710.50
2019-02-15T05:54:27.646Z,101716.58
2019-02-15T05:56:55.747Z,101718.78
2019-02-15T05:59:23.889Z,101718.83
2019-02-15T06:01:51.955Z,101718.44
2019-02-15T06:04:21.159Z,101723.95
2019-02-15T06:06:49.351Z,101726.12
2019-02-15T06:09:17.385Z,101724.45
2019-02-15T06:11:45.838Z,101735.69
2019-02-15T06:14:14.134Z,101733.64
2019-02-15T06:16:42.308Z,101734.55
2019-02-15T06:19:10.379Z,101738.80
2019-02-15T06:21:38.457Z,101741.84
2019-02-15T06:24:06.634Z,101740.09
2019-02-15T06:26:34.680Z,101742.67
2019-02-15T06:29:03.849Z,101748.67
2019-02-15T06:31:31.939Z,101746.55
2019-02-15T06:34:00.049Z,101746.55
2019-02-15T06:36:33.187Z,101747.00
2019-02-15T06:39:01.232Z,101748.37
2019-02-15T06:41:33.006Z,101745.45
2019-02-15T06:44:01.769Z,101745.53
2019-02-15T06:46:29.825Z,101754.19
2019-02-15T06:49:00.372Z,101753.73
2019-02-15T06:51:28.443Z,101756.69
2019-02-15T06:53:56.957Z,101760.49
2019-02-15T06:56:25.007Z,101759.99
2019-02-15T06:59:10.069Z,101757.34
2019-02-15T07:01:43.440Z,101761.13
2019-02-15T07:04:20.953Z,101758.94
2019-02-15T07:06:49.133Z,101767.06
2019-02-15T07:09:17.149Z,101763.98
2019-02-15T07:11:45.446Z,101762.54
2019-02-15T07:14:13.514Z,101767.52
2019-02-15T07:16:41.644Z,101766.45
2019-02-15T07:19:09.673Z,101764.81
2019-02-15T07:21:38.983Z,101769.58
2019-02-15T07:24:07.023Z,101765.65
2019-02-15T07:26:36.108Z,101761.59
2019-02-15T07:29:04.193Z,101764.23
2019-02-15T07:31:32.282Z,101764.59
2019-02-15T07:34:00.778Z,101759.28
2019-02-15T07:36:28.826Z,101764.98
2019-02-15T07:38:57.573Z,101765.72
2019-02-15T07:41:25.621Z,101767.20
2019-02-15T07:43:53.681Z,101765.97
2019-02-15T07:46:22.733Z,101766.17
2019-02-15T07:48:50.798Z,101770.23
2019-02-15T07:51:18.851Z,101767.77
2019-02-15T07:53:46.879Z,101767.29
2019-02-15T07:56:15.023Z,101761.82
2019-02-15T07:58:43.176Z,101762.31
2019-02-15T08:01:11.245Z,101761.22
2019-02-15T08:03:39.313Z,101752.37
2019-02-15T08:06:07.368Z,101754.81
2019-02-15T08:08:35.399Z,101756.56
2019-02-15T08:11:05.281Z,101752.78
2019-02-15T08:13:33.682Z,101751.28
2019-02-15T08:16:02.933Z,101750.09
2019-02-15T08:18:31.219Z,101734.84
2019-02-15T08:20:59.258Z,101736.52
2019-02-15T08:23:27.315Z,101741.48
2019-02-15T08:25:55.381Z,101737.23
2019-02-15T08:28:23.876Z,101729.73
2019-02-15T08:30:51.923Z,101722.30
2019-02-15T08:33:20.237Z,101718.34
2019-02-15T08:35:48.545Z,101711.64
2019-02-15T08:38:17.938Z,101708.45
2019-02-15T08:40:45.978Z,101712.82
2019-02-15T08:43:14.421Z,101715.92
2019-02-15T08:45:42.870Z,101705.17
2019-02-15T08:48:11.224Z,101711.67
2019-02-15T08:50:39.237Z,101704.49
2019-02-15T08:53:07.373Z,101704.25
2019-02-15T08:55:35.644Z,101700.81
2019-02-15T08:58:03.796Z,101693.55
2019-02-15T09:00:31.876Z,101694.81
2019-02-15T09:03:00.099Z,101694.37
2019-02-15T09:05:28.116Z,101694.25
2019-02-15T09:07:56.245Z,101692.75
2019-02-15T09:10:24.421Z,101695.64
2019-02-15T09:12:52.442Z,101695.00
2019-02-15T09:15:21.139Z,101684.08
2019-02-15T09:17:49.255Z,101683.91
2019-02-15T09:20:17.612Z,101675.21
2019-02-15T09:22:45.753Z,101680.66
2019-02-15T09:25:14.881Z,101679.17
2019-02-15T09:28:02.637Z,101676.73
2019-02-15T09:30:30.784Z,101664.44
2019-02-15T09:32:59.229Z,101671.66
2019-02-15T09:35:27.261Z,101668.21
2019-02-15T09:37:55.619Z,101672.89
2019-02-15T09:40:24.563Z,101671.88
2019-02-15T09:42:54.288Z,101661.73
2019-02-15T09:45:22.329Z,101666.17
2019-02-15T09:47:50.407Z,101665.05
2019-02-15T09:50:18.467Z,101664.70
2019-02-15T09:52:46.526Z,101664.23
2019-02-15T09:55:14.587Z,101660.71
2019-02-15T09:57:43.748Z,101662.72
2019-02-15T10:00:11.778Z,101654.50
2019-02-15T10:02:40.285Z,101657.45
2019-02-15T10:05:08.307Z,101655.75
2019-02-15T10:07:36.406Z,101649.00
2019-02-15T10:10:05.481Z,101649.61
2019-02-15T10:12:33.543Z,101648.58
2019-02-15T10:18:04.968Z,101660.39
2019-02-15T10:20:33.057Z,101655.33
2019-02-15T10:23:01.117Z,101655.31
2019-02-15T10:25:29.140Z,101650.92
2019-02-15T10:27:57.532Z,101653.69
2019-02-15T10:30:25.583Z,101659.36
2019-02-15T10:32:54.020Z,101650.23
2019-02-15T10:35:22.122Z,101646.02
2019-02-15T10:37:50.179Z,101641.91
2019-02-15T10:40:18.276Z,101644.80
2019-02-15T10:42:46.298Z,101647.25
2019-02-15T10:45:14.734Z,101644.27
2019-02-15T10:47:42.772Z,101641.45
2019-02-15T10:50:11.986Z,101639.54
2019-02-15T10:52:40.002Z,101639.44
2019-02-15T10:55:08.231Z,101633.25
2019-02-15T10:57:36.411Z,101626.87
2019-02-15T11:00:09.793Z,101624.13
2019-02-15T11:02:38.111Z,101629.54
2019-02-15T11:05:06.796Z,101616.53
2019-02-15T11:07:34.863Z,101617.39
2019-02-15T11:10:03.762Z,101610.51
2019-02-15T11:12:32.908Z,101595.79
2019-02-15T11:15:01.106Z,101598.46
2019-02-15T11:17:29.162Z,101595.92
2019-02-15T11:19:58.315Z,101588.91
2019-02-15T11:22:26.392Z,101583.48
2019-02-15T11:24:54.417Z,101581.67
2019-02-15T11:27:22.526Z,101575.36
2019-02-15T11:29:50.652Z,101565.58
2019-02-15T11:32:18.721Z,101573.33
2019-02-15T11:34:46.839Z,101568.10
2019-02-15T11:37:15.263Z,101555.66
2019-02-15T11:39:43.358Z,101550.70
2019-02-15T11:42:11.569Z,101556.92
2019-02-15T11:44:40.378Z,101548.77
2019-02-15T11:47:09.449Z,101543.65
2019-02-15T11:49:37.490Z,101547.09
2019-02-15T11:52:05.996Z,101541.33
2019-02-15T11:54:34.428Z,101538.05
2019-02-15T11:57:02.758Z,101531.57
2019-02-15T11:59:32.669Z,101527.69
2019-02-15T12:02:06.329Z,101528.32
2019-02-15T12:04:30.924Z,101518.27
2019-02-15T12:06:59.102Z,101519.53
2019-02-15T12:09:27.134Z,101513.77
2019-02-15T12:11:55.185Z,101513.08
2019-02-15T12:14:27.510Z,101509.95
2019-02-15T12:16:55.922Z,101512.73
2019-02-15T12:19:24.316Z,101501.48
2019-02-15T12:21:52.389Z,101502.33
2019-02-15T12:24:20.449Z,101498.01
2019-02-15T12:26:48.483Z,101493.10
2019-02-15T12:29:16.666Z,101489.33
2019-02-15T12:31:45.095Z,101489.67
2019-02-15T12:34:13.214Z,101479.72
2019-02-15T12:36:41.255Z,101475.16
2019-02-15T12:39:12.736Z,101473.23
2019-02-15T12:41:40.002Z,101474.51
2019-02-15T12:44:08.233Z,101466.59
2019-02-15T12:46:39.004Z,101469.94
2019-02-15T12:49:07.065Z,101460.91
2019-02-15T12:51:35.282Z,101466.42
2019-02-15T12:54:03.643Z,101462.17
2019-02-15T12:56:32.525Z,101457.72
2019-02-15T12:59:01.062Z,101456.50
2019-02-15T13:01:29.208Z,101456.96
2019-02-15T13:03:57.676Z,101454.63
2019-02-15T13:06:28.758Z,101452.86
2019-02-15T13:08:58.079Z,101451.37
2019-02-15T13:11:26.140Z,101444.61
2019-02-15T13:13:54.262Z,101444.89
2019-02-15T13:16:22.482Z,101442.53
2019-02-15T13:18:50.935Z,101436.94
2019-02-15T13:21:19.046Z,101438.01
2019-02-15T13:23:47.090Z,101433.36
2019-02-15T13:26:15.321Z,101431.97
2019-02-15T13:28:43.800Z,101426.58
2019-02-15T13:31:12.545Z,101422.23
2019-02-15T13:33:40.658Z,101418.80
2019-02-15T13:36:08.864Z,101422.12
2019-02-15T13:38:37.097Z,101418.86
2019-02-15T13:41:05.222Z,101410.37
2019-02-15T13:43:33.924Z,101409.69
2019-02-15T13:46:02.000Z,101408.16
2019-02-15T13:48:30.082Z,101403.67
2019-02-15T13:50:58.130Z,101399.48
2019-02-15T13:53:26.243Z,101399.00
2019-02-15T13:55:55.567Z,101394.99
2019-02-15T13:58:24.487Z,101388.52
2019-02-15T14:00:52.700Z,101389.02
2019-02-15T14:03:20.808Z,101386.00
2019-02-15T14:05:48.937Z,101387.30
2019-02-15T14:08:17.059Z,101380.47
2019-02-15T14:10:45.185Z,101381.27
2019-02-15T14:13:13.276Z,101378.52
2019-02-15T14:15:41.344Z,101372.31
2019-02-15T14:18:09.508Z,101366.33
2019-02-15T14:20:37.516Z,101359.36
2019-02-15T14:23:05.597Z,101363.19
2019-02-15T14:25:33.701Z,101362.19
2019-02-15T14:28:01.790Z,101356.52
2019-02-15T14:30:30.189Z,101348.35
2019-02-15T14:32:58.139Z,101354.52
2019-02-15T14:35:26.275Z,101356.13
2019-02-15T14:37:54.326Z,101355.31
2019-02-15T14:40:22.397Z,101353.11
2019-02-15T14:42:50.840Z,101349.01
2019-02-15T14:45:19.089Z,101349.22
2019-02-15T14:47:54.502Z,101351.59
2019-02-15T14:50:17.804Z,101350.22
2019-02-15T14:52:46.198Z,101344.45
2019-02-15T14:55:14.304Z,101345.32
2019-02-15T14:57:42.340Z,101350.02
2019-02-15T15:00:11.276Z,101347.69
2019-02-15T15:02:39.327Z,101347.98
2019-02-15T15:05:07.636Z,101338.17
2019-02-15T15:07:35.692Z,101339.08
2019-02-15T15:10:04.627Z,101331.64
2019-02-15T15:12:32.727Z,101327.45
2019-02-15T15:15:00.813Z,101328.31
2019-02-15T15:17:28.945Z,101324.95
2019-02-15T15:19:58.226Z,101322.34
2019-02-15T15:22:26.842Z,101318.62
2019-02-15T15:24:54.969Z,101324.57
2019-02-15T15:27:23.046Z,101317.54
2019-02-15T15:29:51.112Z,101317.00
2019-02-15T15:32:20.597Z,101322.53
2019-02-15T15:34:48.705Z,101316.92
2019-02-15T15:37:17.899Z,101316.41
2019-02-15T15:39:46.544Z,101314.31
2019-02-15T15:42:14.782Z,101315.82
2019-02-15T15:44:43.282Z,101307.07
2019-02-15T15:47:13.147Z,101304.05
2019-02-15T15:49:41.233Z,101308.73
2019-02-15T15:52:09.323Z,101309.59
2019-02-15T15:54:37.519Z,101308.86
2019-02-15T15:57:05.572Z,101301.34
2019-02-15T15:59:33.817Z,101308.88
2019-02-15T16:02:01.842Z,101309.56
2019-02-15T16:04:30.195Z,101304.58
2019-02-15T16:06:58.213Z,101307.59
2019-02-15T16:09:26.741Z,101311.11
2019-02-15T16:11:54.799Z,101308.66
2019-02-15T16:14:24.284Z,101305.55
2019-02-15T16:16:52.874Z,101307.45
2019-02-15T16:19:21.596Z,101301.57
2019-02-15T16:21:51.207Z,101302.55
2019-02-15T16:24:19.640Z,101301.11
2019-02-15T16:26:47.734Z,101299.66
2019-02-15T16:29:15.900Z,101300.38
2019-02-15T16:31:44.000Z,101303.63
2019-02-15T16:34:12.658Z,101303.09
2019-02-15T16:36:40.804Z,101309.13
2019-02-15T16:39:10.011Z,101309.80
2019-02-15T16:41:38.277Z,101312.20
2019-02-15T16:44:06.329Z,101318.91
2019-02-15T16:46:34.434Z,101323.75
2019-02-15T16:49:02.924Z,101322.75
2019-02-15T16:51:31.078Z,101324.08
2019-02-15T16:53:59.180Z,101326.67
2019-02-15T16:56:28.271Z,101326.95
2019-02-15T16:58:56.313Z,101328.53
2019-02-15T17:01:24.399Z,101327.45
2019-02-15T17:03:52.456Z,101333.91
2019-02-15T17:06:20.863Z,101329.83
2019-02-15T17:08:49.840Z,101327.17
2019-02-15T17:11:18.215Z,101332.17
2019-02-15T17:13:50.968Z,101328.35
2019-02-15T17:16:19.327Z,101327.45
2019-02-15T17:37:07.367Z,101340.57
2019-02-15T17:39:36.742Z,101341.33
2019-02-15T17:42:04.940Z,101333.21
2019-02-15T17:44:33.001Z,101338.91
2019-02-15T17:47:02.482Z,101334.19
2019-02-15T17:49:30.677Z,101330.30
2019-02-15T17:51:58.812Z,101334.28
2019-02-15T17:54:28.646Z,101331.65
2019-02-15T17:56:56.949Z,101335.98
2019-02-15T17:59:25.052Z,101328.63
2019-02-15T18:01:53.153Z,101329.34
2019-02-15T18:04:21.298Z,101329.22
2019-02-15T18:06:49.837Z,101326.62
2019-02-15T18:09:18.157Z,101327.48
2019-02-15T18:11:46.423Z,101329.14
2019-02-15T18:14:14.503Z,101333.09
2019-02-15T18:16:42.640Z,101326.50
2019-02-15T18:19:12.168Z,101325.18
2019-02-15T18:21:40.628Z,101328.28
2019-02-15T18:24:08.689Z,101327.92
2019-02-15T18:26:37.065Z,101327.41
2019-02-15T18:29:06.375Z,101324.75
2019-02-15T18:31:34.510Z,101322.19
2019-02-15T18:34:02.568Z,101320.00
2019-02-15T18:36:32.093Z,101323.05
2019-02-15T18:39:01.386Z,101323.12
2019-02-15T18:41:30.103Z,101324.13
2019-02-15T18:43:58.570Z,101334.77
2019-02-15T18:46:26.654Z,101324.73
2019-02-15T18:48:55.143Z,101331.84
2019-02-15T18:51:23.618Z,101339.54
2019-02-15T18:53:52.085Z,101338.27
2019-02-15T18:56:20.375Z,101340.84
2019-02-15T18:58:49.685Z,101339.72
2019-02-15T19:01:18.338Z,101341.94
2019-02-15T19:03:46.534Z,101341.81
2019-02-15T19:06:14.694Z,101338.66
2019-02-15T19:08:44.285Z,101337.29
2019-02-15T19:11:12.437Z,101335.19
2019-02-15T19:13:41.356Z,101330.94
2019-02-15T19:16:10.805Z,101330.95
2019-02-15T19:18:39.007Z,101327.39
2019-02-15T19:21:07.310Z,101332.05
2019-02-15T19:23:35.568Z,101333.58
2019-02-15T19:26:04.155Z,101321.27
2019-02-15T19:28:32.227Z,101324.09
2019-02-15T19:31:00.860Z,101318.92
2019-02-15T19:33:29.256Z,101318.80
2019-02-15T19:35:57.399Z,101321.54
2019-02-15T19:38:25.523Z,101312.19
2019-02-15T19:40:53.627Z,101308.41
2019-02-15T19:43:21.821Z,101312.55
2019-02-15T19:45:52.596Z,101318.24
2019-02-15T19:48:20.700Z,101311.75
2019-02-15T19:50:48.753Z,101314.48
2019-02-15T19:53:16.879Z,101312.34
2019-02-15T19:55:45.097Z,101311.86
2019-02-15T19:58:13.588Z,101314.34
2019-02-15T20:00:42.606Z,101312.93
2019-02-15T20:03:10.811Z,101310.79
2019-02-15T20:05:38.991Z,101318.13
2019-02-15T20:08:07.457Z,101322.15
2019-02-15T20:10:35.674Z,101320.83
2019-02-15T20:13:05.166Z,101323.19
2019-02-15T20:15:33.395Z,101316.30
2019-02-15T20:18:02.412Z,101320.77
2019-02-15T20:20:32.224Z,101323.70
2019-02-15T20:23:00.834Z,101315.98
2019-02-15T20:25:29.914Z,101323.90
2019-02-15T20:27:58.771Z,101323.64
2019-02-15T20:30:27.011Z,101320.30
2019-02-15T20:32:55.478Z,101315.18
2019-02-15T20:35:24.246Z,101307.69
2019-02-15T20:37:53.000Z,101314.44
2019-02-15T20:40:21.244Z,101313.23
2019-02-15T20:42:49.397Z,101315.83
2019-02-15T20:45:19.371Z,101309.80
2019-02-15T20:47:47.708Z,101308.25
2019-02-15T20:50:16.109Z,101314.88
2019-02-15T20:52:46.114Z,101315.09
2019-02-15T20:55:14.696Z,101315.80
2019-02-15T20:57:43.125Z,101314.70
2019-02-15T21:00:15.278Z,101315.97
2019-02-15T21:02:44.528Z,101320.81
2019-02-15T21:05:12.992Z,101316.20
2019-02-15T21:07:41.417Z,101313.72
2019-02-15T21:10:10.864Z,101315.48
2019-02-15T21:12:39.955Z,101309.45
2019-02-15T21:15:08.801Z,101309.54
2019-02-15T21:17:37.362Z,101306.22
2019-02-15T21:20:08.128Z,101304.56
2019-02-15T21:22:36.724Z,101303.03
2019-02-15T21:25:06.371Z,101304.89
2019-02-15T21:27:34.779Z,101309.38
2019-02-15T21:30:03.903Z,101301.80
2019-02-15T21:32:33.306Z,101301.06
2019-02-15T21:35:01.520Z,101310.28
2019-02-15T21:37:29.736Z,101305.67
2019-02-15T21:39:57.974Z,101302.23
2019-02-15T21:42:26.163Z,101306.50
2019-02-15T21:44:54.247Z,101303.06
2019-02-15T21:47:22.405Z,101302.13
2019-02-15T21:49:50.514Z,101299.16
2019-02-15T21:52:18.629Z,101297.95
2019-02-15T21:54:46.729Z,101298.42
2019-02-15T21:57:14.841Z,101303.38
2019-02-15T21:59:43.096Z,101305.63
2019-02-15T22:02:11.284Z,101306.09
2019-02-15T22:04:39.357Z,101310.12
2019-02-15T22:07:07.439Z,101307.98
2019-02-15T22:09:35.919Z,101310.31
2019-02-15T22:12:04.630Z,101312.09
2019-02-15T22:14:34.224Z,101318.35
2019-02-15T22:17:02.804Z,101312.79
2019-02-15T22:19:30.930Z,101311.10
2019-02-15T22:22:02.190Z,101310.63
2019-02-15T22:24:32.375Z,101300.61
2019-02-15T22:27:00.531Z,101304.98
2019-02-15T22:29:29.241Z,101301.44
2019-02-15T22:31:57.665Z,101306.89
2019-02-15T22:34:27.171Z,101301.33
2019-02-15T22:36:55.221Z,101296.84
2019-02-15T22:39:23.425Z,101291.27
2019-02-15T22:41:51.801Z,101290.33
2019-02-15T22:44:21.597Z,101291.98
2019-02-15T22:46:49.661Z,101288.47
2019-02-15T22:49:17.758Z,101282.41
2019-02-15T22:51:47.003Z,101279.81
2019-02-15T22:54:15.400Z,101281.97
2019-02-15T22:56:44.070Z,101290.69
2019-02-15T22:59:12.221Z,101287.84
2019-02-15T23:01:40.681Z,101282.28
2019-02-15T23:04:08.765Z,101280.98
2019-02-15T23:06:36.820Z,101281.45
2019-02-15T23:09:19.140Z,101280.63
2019-02-15T23:11:47.248Z,101273.50
2019-02-15T23:14:15.375Z,101271.95
2019-02-15T23:16:45.061Z,101279.88
2019-02-15T23:19:13.372Z,101275.97
2019-02-15T23:21:41.425Z,101273.92
2019-02-15T23:24:09.528Z,101277.58
2019-02-15T23:26:38.713Z,101269.98
2019-02-15T23:29:06.914Z,101265.25
2019-02-15T23:31:34.979Z,101271.75
2019-02-15T23:34:03.324Z,101269.27
2019-02-15T23:36:32.992Z,101269.73
2019-02-15T23:39:01.058Z,101268.67
2019-02-15T23:41:31.008Z,101266.63
2019-02-15T23:43:59.089Z,101262.25
2019-02-15T23:46:27.131Z,101263.66
2019-02-15T23:48:55.523Z,101261.89
2019-02-15T23:51:23.953Z,101267.45
2019-02-15T23:53:52.041Z,101266.15
2019-02-15T23:56:20.138Z,101266.63
2019-02-15T23:58:48.596Z,101270.52
